sensor_id;sensor_type;location;lat;lon;timestamp;temperature;humidity
19435;DHT22;9853;50.848;4.108;2024-03-17T01:07:37;9.40;99.90
19435;DHT22;9853;50.848;4.108;2024-03-17T01:53:10;8.90;99.90
19435;DHT22;9853;50.848;4.108;2024-03-17T01:56:32;9.00;99.90
19435;DHT22;9853;50.848;4.108;2024-03-17T02:06:58;9.30;99.90
19435;DHT22;9853;50.848;4.108;2024-03-17T02:12:59;9.30;99.90
19435;DHT22;9853;50.848;4.108;2024-03-17T02:16:18;9.40;99.90
19435;DHT22;9853;50.848;4.108;2024-03-17T02:19:07;9.50;99.90
19435;DHT22;9853;50.848;4.108;2024-03-17T02:29:50;9.60;99.90
19435;DHT22;9853;50.848;4.108;2024-03-17T02:33:03;9.40;99.90
19435;DHT22;9853;50.848;4.108;2024-03-17T02:36:24;9.20;99.90
19435;DHT22;9853;50.848;4.108;2024-03-17T04:34:31;8.80;99.90
19435;DHT22;9853;50.848;4.108;2024-03-17T04:37:18;8.60;99.90
19435;DHT22;9853;50.848;4.108;2024-03-17T05:27:01;8.70;99.90
19435;DHT22;9853;50.848;4.108;2024-03-17T05:34:06;9.10;99.90
19435;DHT22;9853;50.848;4.108;2024-03-17T05:37:29;9.20;99.90
19435;DHT22;9853;50.848;4.108;2024-03-17T05:40:33;9.30;99.90
19435;DHT22;9853;50.848;4.108;2024-03-17T05:58:01;9.50;99.90
19435;DHT22;9853;50.848;4.108;2024-03-17T06:00:51;9.40;99.90
19435;DHT22;9853;50.848;4.108;2024-03-17T06:03:45;9.30;99.90
19435;DHT22;9853;50.848;4.108;2024-03-17T08:27:17;11.00;99.90
19435;DHT22;9853;50.848;4.108;2024-03-17T08:30:03;11.00;99.90
19435;DHT22;9853;50.848;4.108;2024-03-17T08:46:34;10.80;99.90
19435;DHT22;9853;50.848;4.108;2024-03-17T08:57:29;10.90;99.90
19435;DHT22;9853;50.848;4.108;2024-03-17T09:00:37;10.80;99.90
19435;DHT22;9853;50.848;4.108;2024-03-17T09:06:18;11.00;99.90
19435;DHT22;9853;50.848;4.108;2024-03-17T09:08:24;10.90;99.90
19435;DHT22;9853;50.848;4.108;2024-03-17T09:10:31;11.00;99.90
19435;DHT22;9853;50.848;4.108;2024-03-17T09:12:35;11.00;99.90
19435;DHT22;9853;50.848;4.108;2024-03-17T09:14:38;10.90;99.90
19435;DHT22;9853;50.848;4.108;2024-03-17T09:16:48;10.90;99.90
19435;DHT22;9853;50.848;4.108;2024-03-17T09:19:04;11.10;99.90
19435;DHT22;9853;50.848;4.108;2024-03-17T09:21:12;11.30;99.90
19435;DHT22;9853;50.848;4.108;2024-03-17T09:23:28;11.20;99.90
19435;DHT22;9853;50.848;4.108;2024-03-17T09:25:58;11.20;99.90
19435;DHT22;9853;50.848;4.108;2024-03-17T09:28:41;11.30;99.90
19435;DHT22;9853;50.848;4.108;2024-03-17T09:31:11;11.00;99.90
19435;DHT22;9853;50.848;4.108;2024-03-17T09:33:29;11.10;99.90
19435;DHT22;9853;50.848;4.108;2024-03-17T09:35:43;11.20;99.90
19435;DHT22;9853;50.848;4.108;2024-03-17T09:38:02;11.30;99.90
19435;DHT22;9853;50.848;4.108;2024-03-17T09:51:41;11.80;99.90
19435;DHT22;9853;50.848;4.108;2024-03-17T09:54:48;11.70;99.90
19435;DHT22;9853;50.848;4.108;2024-03-17T10:04:33;12.00;99.90
19435;DHT22;9853;50.848;4.108;2024-03-17T10:11:48;12.30;99.90
19435;DHT22;9853;50.848;4.108;2024-03-17T10:24:40;12.70;99.90
19435;DHT22;9853;50.848;4.108;2024-03-17T10:32:22;12.40;99.90
19435;DHT22;9853;50.848;4.108;2024-03-17T10:34:43;12.50;99.90
19435;DHT22;9853;50.848;4.108;2024-03-17T10:46:29;12.80;99.90
19435;DHT22;9853;50.848;4.108;2024-03-17T10:56:49;13.20;99.90
19435;DHT22;9853;50.848;4.108;2024-03-17T11:05:52;14.10;99.90
19435;DHT22;9853;50.848;4.108;2024-03-17T11:09:00;13.90;99.90
19435;DHT22;9853;50.848;4.108;2024-03-17T11:11:43;14.20;99.90
19435;DHT22;9853;50.848;4.108;2024-03-17T11:14:37;14.00;99.90
19435;DHT22;9853;50.848;4.108;2024-03-17T11:17:29;13.90;99.90
19435;DHT22;9853;50.848;4.108;2024-03-17T11:19:49;13.80;99.90
19435;DHT22;9853;50.848;4.108;2024-03-17T11:28:04;13.90;99.90
19435;DHT22;9853;50.848;4.108;2024-03-17T11:30:50;14.00;99.90
19435;DHT22;9853;50.848;4.108;2024-03-17T11:33:59;14.30;99.90
19435;DHT22;9853;50.848;4.108;2024-03-17T11:42:39;14.90;99.90
19435;DHT22;9853;50.848;4.108;2024-03-17T11:47:50;14.70;99.90
19435;DHT22;9853;50.848;4.108;2024-03-17T11:50:19;14.80;99.90
19435;DHT22;9853;50.848;4.108;2024-03-17T11:52:36;15.00;99.90
19435;DHT22;9853;50.848;4.108;2024-03-17T11:55:37;15.20;99.90
19435;DHT22;9853;50.848;4.108;2024-03-17T11:58:12;15.20;99.90
19435;DHT22;9853;50.848;4.108;2024-03-17T12:00:51;14.80;99.90
19435;DHT22;9853;50.848;4.108;2024-03-17T12:03:25;14.70;99.90
19435;DHT22;9853;50.848;4.108;2024-03-17T12:05:34;14.40;99.90
19435;DHT22;9853;50.848;4.108;2024-03-17T12:07:51;14.20;99.90
19435;DHT22;9853;50.848;4.108;2024-03-17T12:10:28;14.30;99.90
19435;DHT22;9853;50.848;4.108;2024-03-17T12:13:32;14.40;99.90
19435;DHT22;9853;50.848;4.108;2024-03-17T12:16:17;14.40;99.90
19435;DHT22;9853;50.848;4.108;2024-03-17T12:18:44;14.60;99.90
19435;DHT22;9853;50.848;4.108;2024-03-17T12:21:19;14.70;99.90
19435;DHT22;9853;50.848;4.108;2024-03-17T12:23:41;14.80;99.90
19435;DHT22;9853;50.848;4.108;2024-03-17T12:26:03;14.90;99.90
19435;DHT22;9853;50.848;4.108;2024-03-17T12:31:05;15.30;99.90
19435;DHT22;9853;50.848;4.108;2024-03-17T12:38:42;15.40;99.90
19435;DHT22;9853;50.848;4.108;2024-03-17T12:40:48;15.30;99.90
19435;DHT22;9853;50.848;4.108;2024-03-17T12:42:54;15.40;99.90
19435;DHT22;9853;50.848;4.108;2024-03-17T12:45:01;15.60;99.90
19435;DHT22;9853;50.848;4.108;2024-03-17T12:47:26;15.60;99.90
19435;DHT22;9853;50.848;4.108;2024-03-17T12:49:33;15.60;99.90
19435;DHT22;9853;50.848;4.108;2024-03-17T12:55:05;15.60;99.90
19435;DHT22;9853;50.848;4.108;2024-03-17T12:57:30;15.70;99.90
19435;DHT22;9853;50.848;4.108;2024-03-17T13:00:16;15.90;99.90
19435;DHT22;9853;50.848;4.108;2024-03-17T13:03:00;15.50;99.90
19435;DHT22;9853;50.848;4.108;2024-03-17T13:07:14;15.20;99.90
19435;DHT22;9853;50.848;4.108;2024-03-17T13:09:16;15.30;99.90
19435;DHT22;9853;50.848;4.108;2024-03-17T13:11:27;15.50;99.90
19435;DHT22;9853;50.848;4.108;2024-03-17T13:13:37;15.40;99.90
19435;DHT22;9853;50.848;4.108;2024-03-17T13:15:44;15.70;99.90
19435;DHT22;9853;50.848;4.108;2024-03-17T13:17:59;15.60;99.90
19435;DHT22;9853;50.848;4.108;2024-03-17T13:20:08;15.80;99.90
19435;DHT22;9853;50.848;4.108;2024-03-17T13:25:45;15.50;99.90
19435;DHT22;9853;50.848;4.108;2024-03-17T13:28:01;15.50;99.90
19435;DHT22;9853;50.848;4.108;2024-03-17T13:30:25;15.70;99.90
19435;DHT22;9853;50.848;4.108;2024-03-17T13:32:45;15.60;99.90
19435;DHT22;9853;50.848;4.108;2024-03-17T13:35:30;15.70;99.90
19435;DHT22;9853;50.848;4.108;2024-03-17T13:37:44;15.60;99.90
19435;DHT22;9853;50.848;4.108;2024-03-17T13:40:09;15.50;99.90
19435;DHT22;9853;50.848;4.108;2024-03-17T13:42:13;15.50;99.90
19435;DHT22;9853;50.848;4.108;2024-03-17T13:45:11;15.40;99.90
19435;DHT22;9853;50.848;4.108;2024-03-17T13:47:47;15.20;99.90
19435;DHT22;9853;50.848;4.108;2024-03-17T13:56:56;15.30;99.90
19435;DHT22;9853;50.848;4.108;2024-03-17T13:59:08;15.10;99.90
19435;DHT22;9853;50.848;4.108;2024-03-17T14:01:11;15.00;99.90
19435;DHT22;9853;50.848;4.108;2024-03-17T14:03:26;14.90;99.90
19435;DHT22;9853;50.848;4.108;2024-03-17T14:05:47;14.90;99.90
19435;DHT22;9853;50.848;4.108;2024-03-17T14:08:00;14.70;99.90
19435;DHT22;9853;50.848;4.108;2024-03-17T14:10:02;14.70;99.90
19435;DHT22;9853;50.848;4.108;2024-03-17T14:12:09;15.00;99.90
19435;DHT22;9853;50.848;4.108;2024-03-17T14:14:23;15.00;99.90
19435;DHT22;9853;50.848;4.108;2024-03-17T14:16:37;15.30;99.90
19435;DHT22;9853;50.848;4.108;2024-03-17T14:19:03;15.00;99.90
19435;DHT22;9853;50.848;4.108;2024-03-17T14:21:07;14.60;99.90
19435;DHT22;9853;50.848;4.108;2024-03-17T14:23:17;14.80;99.90
19435;DHT22;9853;50.848;4.108;2024-03-17T14:25:25;14.80;99.90
19435;DHT22;9853;50.848;4.108;2024-03-17T14:27:35;14.90;99.90
19435;DHT22;9853;50.848;4.108;2024-03-17T14:29:36;15.10;99.90
19435;DHT22;9853;50.848;4.108;2024-03-17T14:32:06;14.90;99.90
19435;DHT22;9853;50.848;4.108;2024-03-17T14:34:13;15.00;99.90
19435;DHT22;9853;50.848;4.108;2024-03-17T14:36:20;15.30;99.90
19435;DHT22;9853;50.848;4.108;2024-03-17T14:38:27;15.00;99.90
19435;DHT22;9853;50.848;4.108;2024-03-17T14:40:52;15.00;99.90
19435;DHT22;9853;50.848;4.108;2024-03-17T14:46:01;15.00;99.90
19435;DHT22;9853;50.848;4.108;2024-03-17T14:58:37;14.50;99.90
19435;DHT22;9853;50.848;4.108;2024-03-17T15:05:32;14.40;99.90
19435;DHT22;9853;50.848;4.108;2024-03-17T15:17:57;14.50;99.90
19435;DHT22;9853;50.848;4.108;2024-03-17T15:20:54;14.40;99.90
19435;DHT22;9853;50.848;4.108;2024-03-17T15:26:34;14.40;99.90
19435;DHT22;9853;50.848;4.108;2024-03-17T15:29:24;14.30;99.90
19435;DHT22;9853;50.848;4.108;2024-03-17T15:35:03;14.60;99.90
19435;DHT22;9853;50.848;4.108;2024-03-17T15:37:54;14.50;99.90
19435;DHT22;9853;50.848;4.108;2024-03-17T15:40:46;14.40;99.90
19435;DHT22;9853;50.848;4.108;2024-03-17T15:43:15;14.60;99.90
19435;DHT22;9853;50.848;4.108;2024-03-17T15:45:47;14.50;99.90
19435;DHT22;9853;50.848;4.108;2024-03-17T15:51:43;14.50;99.90
19435;DHT22;9853;50.848;4.108;2024-03-17T15:58:17;14.50;99.90
19435;DHT22;9853;50.848;4.108;2024-03-17T16:05:49;14.30;99.90
19435;DHT22;9853;50.848;4.108;2024-03-17T16:16:00;14.30;99.90
19435;DHT22;9853;50.848;4.108;2024-03-17T17:09:38;13.50;99.90
19435;DHT22;9853;50.848;4.108;2024-03-17T17:12:20;13.40;99.90
19435;DHT22;9853;50.848;4.108;2024-03-17T17:14:48;13.60;99.90
19435;DHT22;9853;50.848;4.108;2024-03-17T17:21:10;13.70;99.90
19435;DHT22;9853;50.848;4.108;2024-03-17T19:42:37;12.30;99.90
19435;DHT22;9853;50.848;4.108;2024-03-17T19:44:41;12.30;99.90
19435;DHT22;9853;50.848;4.108;2024-03-17T19:46:44;12.30;99.90
19435;DHT22;9853;50.848;4.108;2024-03-17T19:51:49;12.30;99.90
19435;DHT22;9853;50.848;4.108;2024-03-17T19:53:59;12.20;99.90
19435;DHT22;9853;50.848;4.108;2024-03-17T19:56:04;12.20;99.90
19435;DHT22;9853;50.848;4.108;2024-03-17T19:58:17;12.20;99.90
19435;DHT22;9853;50.848;4.108;2024-03-17T20:00:43;12.30;99.90
19435;DHT22;9853;50.848;4.108;2024-03-17T20:02:58;12.30;99.90
19435;DHT22;9853;50.848;4.108;2024-03-17T20:05:02;12.20;99.90
19435;DHT22;9853;50.848;4.108;2024-03-17T20:07:12;12.30;99.90
19435;DHT22;9853;50.848;4.108;2024-03-17T20:09:16;12.30;99.90
19435;DHT22;9853;50.848;4.108;2024-03-17T20:11:31;12.30;99.90
19435;DHT22;9853;50.848;4.108;2024-03-17T20:13:32;12.30;99.90
19435;DHT22;9853;50.848;4.108;2024-03-17T20:15:40;12.30;99.90
19435;DHT22;9853;50.848;4.108;2024-03-17T20:17:46;12.30;99.90
19435;DHT22;9853;50.848;4.108;2024-03-17T20:19:49;12.30;99.90
19435;DHT22;9853;50.848;4.108;2024-03-17T20:21:53;12.40;99.90
19435;DHT22;9853;50.848;4.108;2024-03-17T20:29:33;12.50;99.90
19435;DHT22;9853;50.848;4.108;2024-03-17T20:31:44;12.70;99.90
19435;DHT22;9853;50.848;4.108;2024-03-17T20:33:48;12.80;99.90
19435;DHT22;9853;50.848;4.108;2024-03-17T20:35:51;12.90;99.90
19435;DHT22;9853;50.848;4.108;2024-03-17T20:37:52;12.90;99.90
19435;DHT22;9853;50.848;4.108;2024-03-17T20:39:53;12.90;99.90
19435;DHT22;9853;50.848;4.108;2024-03-17T20:42:29;13.00;99.90
19435;DHT22;9853;50.848;4.108;2024-03-17T20:44:44;12.90;99.90
19435;DHT22;9853;50.848;4.108;2024-03-17T20:46:56;12.90;99.90
19435;DHT22;9853;50.848;4.108;2024-03-17T20:49:03;12.70;99.90
19435;DHT22;9853;50.848;4.108;2024-03-17T20:51:28;12.70;99.90
19435;DHT22;9853;50.848;4.108;2024-03-17T20:53:34;12.60;99.90
19435;DHT22;9853;50.848;4.108;2024-03-17T20:55:43;12.70;99.90
19435;DHT22;9853;50.848;4.108;2024-03-17T20:57:44;12.60;99.90
19435;DHT22;9853;50.848;4.108;2024-03-17T20:59:48;12.70;99.90
19435;DHT22;9853;50.848;4.108;2024-03-17T21:02:15;12.70;99.90
19435;DHT22;9853;50.848;4.108;2024-03-17T21:04:39;12.60;99.90
19435;DHT22;9853;50.848;4.108;2024-03-17T21:07:15;12.70;99.90
19435;DHT22;9853;50.848;4.108;2024-03-17T21:09:23;12.60;99.90
19435;DHT22;9853;50.848;4.108;2024-03-17T21:11:24;12.60;99.90
19435;DHT22;9853;50.848;4.108;2024-03-17T21:13:28;12.60;99.90
19435;DHT22;9853;50.848;4.108;2024-03-17T21:15:39;12.30;99.90
19435;DHT22;9853;50.848;4.108;2024-03-17T21:18:10;12.40;99.90
19435;DHT22;9853;50.848;4.108;2024-03-17T21:20:39;12.20;99.90
19435;DHT22;9853;50.848;4.108;2024-03-17T21:22:51;12.20;99.90
19435;DHT22;9853;50.848;4.108;2024-03-17T21:25:58;12.10;99.90
19435;DHT22;9853;50.848;4.108;2024-03-17T21:28:23;12.10;99.90
19435;DHT22;9853;50.848;4.108;2024-03-17T21:31:05;12.00;99.90
19435;DHT22;9853;50.848;4.108;2024-03-17T21:35:34;11.80;99.90
19435;DHT22;9853;50.848;4.108;2024-03-17T21:37:45;11.80;99.90
19435;DHT22;9853;50.848;4.108;2024-03-17T21:40:00;11.80;99.90
19435;DHT22;9853;50.848;4.108;2024-03-17T21:42:53;11.80;99.90
19435;DHT22;9853;50.848;4.108;2024-03-17T21:45:15;11.80;99.90
19435;DHT22;9853;50.848;4.108;2024-03-17T21:47:53;11.70;99.90
19435;DHT22;9853;50.848;4.108;2024-03-17T21:50:41;11.60;99.90
19435;DHT22;9853;50.848;4.108;2024-03-17T21:53:27;11.60;99.90
19435;DHT22;9853;50.848;4.108;2024-03-17T21:55:53;11.50;99.90
19435;DHT22;9853;50.848;4.108;2024-03-17T21:58:29;11.50;99.90
19435;DHT22;9853;50.848;4.108;2024-03-17T22:01:15;11.50;99.90
19435;DHT22;9853;50.848;4.108;2024-03-17T22:03:28;11.50;99.90
19435;DHT22;9853;50.848;4.108;2024-03-17T22:06:00;11.50;99.90
19435;DHT22;9853;50.848;4.108;2024-03-17T22:08:08;11.50;99.90
19435;DHT22;9853;50.848;4.108;2024-03-17T22:10:13;11.50;99.90
19435;DHT22;9853;50.848;4.108;2024-03-17T22:12:19;11.50;99.90
19435;DHT22;9853;50.848;4.108;2024-03-17T22:14:29;11.50;99.90
19435;DHT22;9853;50.848;4.108;2024-03-17T22:16:32;11.60;99.90
19435;DHT22;9853;50.848;4.108;2024-03-17T22:19:15;11.60;99.90
19435;DHT22;9853;50.848;4.108;2024-03-17T22:21:34;11.60;99.90
19435;DHT22;9853;50.848;4.108;2024-03-17T22:24:20;11.60;99.90
19435;DHT22;9853;50.848;4.108;2024-03-17T22:26:50;11.50;99.90
19435;DHT22;9853;50.848;4.108;2024-03-17T22:29:12;11.40;99.90
19435;DHT22;9853;50.848;4.108;2024-03-17T22:31:28;11.40;99.90
19435;DHT22;9853;50.848;4.108;2024-03-17T22:33:38;11.30;99.90
19435;DHT22;9853;50.848;4.108;2024-03-17T22:35:45;11.30;99.90
19435;DHT22;9853;50.848;4.108;2024-03-17T22:37:48;11.40;99.90
19435;DHT22;9853;50.848;4.108;2024-03-17T22:39:54;11.40;99.90
19435;DHT22;9853;50.848;4.108;2024-03-17T22:42:19;11.40;99.90
19435;DHT22;9853;50.848;4.108;2024-03-17T22:45:02;11.50;99.90
19435;DHT22;9853;50.848;4.108;2024-03-17T22:47:57;11.40;99.90
19435;DHT22;9853;50.848;4.108;2024-03-17T22:50:24;11.30;99.90
19435;DHT22;9853;50.848;4.108;2024-03-17T22:52:25;11.30;99.90
19435;DHT22;9853;50.848;4.108;2024-03-17T22:54:31;11.30;99.90
19435;DHT22;9853;50.848;4.108;2024-03-17T22:56:42;11.30;99.90
19435;DHT22;9853;50.848;4.108;2024-03-17T22:58:51;11.30;99.90
19435;DHT22;9853;50.848;4.108;2024-03-17T23:01:03;11.30;99.90
19435;DHT22;9853;50.848;4.108;2024-03-17T23:03:30;11.30;99.90
19435;DHT22;9853;50.848;4.108;2024-03-17T23:05:47;11.30;99.90
19435;DHT22;9853;50.848;4.108;2024-03-17T23:08:04;11.40;99.90
19435;DHT22;9853;50.848;4.108;2024-03-17T23:10:11;11.20;99.90
19435;DHT22;9853;50.848;4.108;2024-03-17T23:12:52;11.30;99.90
19435;DHT22;9853;50.848;4.108;2024-03-17T23:14:57;11.30;99.90
19435;DHT22;9853;50.848;4.108;2024-03-17T23:17:01;11.30;99.90
19435;DHT22;9853;50.848;4.108;2024-03-17T23:19:02;11.20;99.90
19435;DHT22;9853;50.848;4.108;2024-03-17T23:21:06;11.20;99.90
19435;DHT22;9853;50.848;4.108;2024-03-17T23:23:13;11.10;99.90
19435;DHT22;9853;50.848;4.108;2024-03-17T23:25:15;11.10;99.90
19435;DHT22;9853;50.848;4.108;2024-03-17T23:27:21;11.10;99.90
19435;DHT22;9853;50.848;4.108;2024-03-17T23:29:28;11.10;99.90
19435;DHT22;9853;50.848;4.108;2024-03-17T23:31:31;11.20;99.90
19435;DHT22;9853;50.848;4.108;2024-03-17T23:33:55;11.20;99.90
19435;DHT22;9853;50.848;4.108;2024-03-17T23:36:00;11.30;99.90
19435;DHT22;9853;50.848;4.108;2024-03-17T23:38:02;11.20;99.90
19435;DHT22;9853;50.848;4.108;2024-03-17T23:40:08;11.30;99.90
19435;DHT22;9853;50.848;4.108;2024-03-17T23:42:39;11.30;99.90
19435;DHT22;9853;50.848;4.108;2024-03-17T23:44:42;11.20;99.90
19435;DHT22;9853;50.848;4.108;2024-03-17T23:46:43;11.30;99.90
19435;DHT22;9853;50.848;4.108;2024-03-17T23:48:47;11.20;99.90
19435;DHT22;9853;50.848;4.108;2024-03-17T23:51:05;11.30;99.90
19435;DHT22;9853;50.848;4.108;2024-03-17T23:53:17;11.30;99.90
19435;DHT22;9853;50.848;4.108;2024-03-17T23:55:49;11.30;99.90
19435;DHT22;9853;50.848;4.108;2024-03-17T23:58:22;11.40;99.90
